createdAt,value
2018-06-21T00:00:55.129Z,92.70
2018-06-21T00:03:23.624Z,92.90
2018-06-21T00:05:52.111Z,93.00
2018-06-21T00:08:20.592Z,93.60
2018-06-21T00:10:49.072Z,93.50
2018-06-21T00:13:17.582Z,94.00
2018-06-21T00:15:46.064Z,94.30
2018-06-21T00:18:14.560Z,94.50
2018-06-21T00:20:43.016Z,94.70
2018-06-21T00:23:11.523Z,94.90
2018-06-21T00:25:39.978Z,94.90
2018-06-21T00:28:08.531Z,95.20
2018-06-21T00:33:05.126Z,96.00
2018-06-21T00:35:33.616Z,96.10
2018-06-21T00:38:02.068Z,96.30
2018-06-21T00:40:30.573Z,96.50
2018-06-21T00:42:59.023Z,96.50
2018-06-21T00:45:27.499Z,96.60
2018-06-21T00:50:24.109Z,97.00
2018-06-21T00:52:52.552Z,97.00
2018-06-21T00:55:32.404Z,97.00
2018-06-21T00:58:00.839Z,97.10
2018-06-21T01:00:29.326Z,97.20
2018-06-21T01:02:57.774Z,97.50
2018-06-21T01:05:26.242Z,97.60
2018-06-21T01:07:54.716Z,97.40
2018-06-21T01:10:23.183Z,97.40
2018-06-21T01:12:51.619Z,97.60
2018-06-21T01:15:20.089Z,97.70
2018-06-21T01:17:48.547Z,97.80
2018-06-21T01:20:17.004Z,97.80
2018-06-21T01:22:45.484Z,97.90
2018-06-21T01:25:13.939Z,97.90
2018-06-21T01:27:42.413Z,98.00
2018-06-21T01:30:10.923Z,98.20
2018-06-21T01:32:39.391Z,98.30
2018-06-21T01:35:07.851Z,98.20
2018-06-21T01:37:36.327Z,98.20
2018-06-21T01:40:04.814Z,98.40
2018-06-21T01:42:33.287Z,98.60
2018-06-21T01:45:01.736Z,98.50
2018-06-21T01:47:30.211Z,98.80
2018-06-21T01:49:58.680Z,98.80
2018-06-21T01:52:27.168Z,98.80
2018-06-21T01:54:55.623Z,98.80
2018-06-21T01:59:52.215Z,99.10
2018-06-21T02:02:20.664Z,99.20
2018-06-21T02:07:17.287Z,99.20
2018-06-21T02:09:45.759Z,99.30
2018-06-21T02:12:14.212Z,99.30
2018-06-21T02:14:42.691Z,99.40
2018-06-21T02:17:11.139Z,99.30
2018-06-21T02:19:39.623Z,99.40
2018-06-21T02:22:08.107Z,99.50
2018-06-21T02:24:36.547Z,99.50
2018-06-21T02:27:05.177Z,99.40
2018-06-21T02:29:33.668Z,99.80
2018-06-21T02:32:02.136Z,99.70
2018-06-21T02:34:30.588Z,99.70
2018-06-21T02:36:59.064Z,99.70
2018-06-21T02:39:27.508Z,99.80
2018-06-21T02:41:55.984Z,99.90
2018-06-21T02:44:24.432Z,99.90
2018-06-21T02:51:49.181Z,99.90
2018-06-21T02:54:17.647Z,99.90
2018-06-21T02:56:46.091Z,99.90
2018-06-21T02:59:14.560Z,99.90
2018-06-21T03:01:43.168Z,99.90
2018-06-21T03:04:11.646Z,99.90
2018-06-21T03:06:40.116Z,99.90
2018-06-21T03:09:09.452Z,99.90
2018-06-21T03:11:38.211Z,99.90
2018-06-21T03:14:06.836Z,99.90
2018-06-21T03:16:35.655Z,99.90
2018-06-21T03:19:04.184Z,99.90
2018-06-21T03:21:32.664Z,99.90
2018-06-21T03:26:29.279Z,99.90
2018-06-21T03:28:57.740Z,99.90
2018-06-21T03:31:26.216Z,99.90
2018-06-21T03:33:54.700Z,99.90
2018-06-21T03:36:23.185Z,99.90
2018-06-21T03:38:51.635Z,99.90
2018-06-21T03:43:48.259Z,99.90
2018-06-21T03:46:16.708Z,99.90
2018-06-21T03:48:45.215Z,99.90
2018-06-21T03:51:13.684Z,99.90
2018-06-21T03:53:42.156Z,99.90
2018-06-21T03:56:10.623Z,99.90
2018-06-21T03:58:39.104Z,99.90
2018-06-21T04:01:08.299Z,99.90
2018-06-21T04:03:36.800Z,99.90
2018-06-21T04:06:05.296Z,99.90
2018-06-21T04:08:33.780Z,99.90
2018-06-21T04:11:02.588Z,99.90
2018-06-21T04:13:31.040Z,99.90
2018-06-21T04:15:59.517Z,99.90
2018-06-21T04:18:32.433Z,99.90
2018-06-21T04:21:00.917Z,99.90
2018-06-21T04:23:29.368Z,99.90
2018-06-21T04:25:57.839Z,99.90
2018-06-21T04:28:26.444Z,99.90
2018-06-21T04:30:55.073Z,99.90
2018-06-21T04:33:23.580Z,99.90
2018-06-21T04:35:52.091Z,99.90
2018-06-21T04:38:20.608Z,99.90
2018-06-21T04:40:49.072Z,99.90
2018-06-21T04:43:17.559Z,99.90
2018-06-21T04:45:46.071Z,99.90
2018-06-21T04:48:14.511Z,99.90
2018-06-21T04:50:42.971Z,99.90
2018-06-21T04:53:11.448Z,99.90
2018-06-21T04:55:39.905Z,99.90
2018-06-21T04:58:08.371Z,99.90
2018-06-21T05:00:36.860Z,99.90
2018-06-21T05:03:05.339Z,99.90
2018-06-21T05:05:33.796Z,99.90
2018-06-21T05:10:30.403Z,99.90
2018-06-21T05:12:58.892Z,99.90
2018-06-21T05:15:27.516Z,99.90
2018-06-21T05:17:55.995Z,99.90
2018-06-21T05:20:24.439Z,99.90
2018-06-21T05:22:52.900Z,99.90
2018-06-21T05:25:21.366Z,99.90
2018-06-21T05:27:49.820Z,99.90
2018-06-21T05:32:46.451Z,99.90
2018-06-21T05:35:14.959Z,99.90
2018-06-21T05:37:43.425Z,99.90
2018-06-21T05:40:32.823Z,99.90
2018-06-21T05:45:30.427Z,99.90
2018-06-21T05:48:01.107Z,99.90
2018-06-21T05:50:30.853Z,99.80
2018-06-21T05:52:59.707Z,99.90
2018-06-21T05:55:29.147Z,99.70
2018-06-21T05:57:57.687Z,99.60
2018-06-21T06:00:26.135Z,99.70
2018-06-21T06:02:54.788Z,99.80
2018-06-21T06:05:23.256Z,99.80
2018-06-21T06:07:51.960Z,99.70
2018-06-21T06:10:21.229Z,99.60
2018-06-21T06:12:49.941Z,99.60
2018-06-21T06:15:18.416Z,99.40
2018-06-21T06:17:46.880Z,99.10
2018-06-21T06:20:15.332Z,99.60
2018-06-21T06:22:43.804Z,99.20
2018-06-21T06:25:12.528Z,98.60
2018-06-21T06:27:41.015Z,98.70
2018-06-21T06:30:09.700Z,98.20
2018-06-21T06:32:38.308Z,98.00
2018-06-21T06:35:06.772Z,98.10
2018-06-21T06:40:03.427Z,98.00
2018-06-21T06:42:31.888Z,97.70
2018-06-21T06:45:00.376Z,97.60
2018-06-21T06:47:28.844Z,97.40
2018-06-21T06:49:57.771Z,97.30
2018-06-21T06:54:54.372Z,96.30
2018-06-21T06:57:22.848Z,96.10
2018-06-21T06:59:51.313Z,96.00
2018-06-21T07:02:19.793Z,95.50
2018-06-21T07:04:48.277Z,95.20
2018-06-21T07:07:16.748Z,95.00
2018-06-21T07:09:45.207Z,94.90
2018-06-21T07:12:13.687Z,94.40
2018-06-21T07:17:10.340Z,94.20
2018-06-21T07:19:38.835Z,94.40
2018-06-21T07:27:03.643Z,93.80
2018-06-21T07:29:32.128Z,93.90
2018-06-21T07:32:00.583Z,93.00
2018-06-21T07:34:29.259Z,93.20
2018-06-21T07:36:57.720Z,93.60
2018-06-21T07:39:26.221Z,93.00
2018-06-21T07:41:54.684Z,92.60
2018-06-21T07:44:23.163Z,92.50
2018-06-21T07:46:51.645Z,92.30
2018-06-21T07:49:20.093Z,93.00
2018-06-21T07:54:16.999Z,93.70
2018-06-21T07:56:45.495Z,93.90
2018-06-21T07:59:14.026Z,94.00
2018-06-21T08:01:42.497Z,93.90
2018-06-21T08:06:39.131Z,93.10
2018-06-21T08:09:10.928Z,93.30
2018-06-21T08:11:39.387Z,92.50
2018-06-21T08:14:07.968Z,92.60
2018-06-21T08:19:05.048Z,92.80
2018-06-21T08:24:01.923Z,92.00
2018-06-21T08:26:30.400Z,91.80
2018-06-21T08:28:58.856Z,91.40
2018-06-21T08:31:27.341Z,91.30
2018-06-21T08:33:55.864Z,91.50
2018-06-21T08:36:25.302Z,91.60
2018-06-21T08:38:53.769Z,91.70
2018-06-21T08:41:22.243Z,91.30
2018-06-21T08:43:50.795Z,90.90
2018-06-21T08:46:19.328Z,90.40
2018-06-21T08:48:48.517Z,90.10
2018-06-21T08:51:17.012Z,90.30
2018-06-21T08:53:45.496Z,90.00
2018-06-21T08:56:13.943Z,88.60
2018-06-21T08:58:42.415Z,87.20
2018-06-21T09:01:10.949Z,87.40
2018-06-21T09:03:39.458Z,87.80
2018-06-21T09:06:07.940Z,86.80
2018-06-21T09:08:36.438Z,85.60
2018-06-21T09:11:05.185Z,86.40
2018-06-21T09:13:36.120Z,86.90
2018-06-21T09:16:05.551Z,84.90
2018-06-21T09:21:02.518Z,81.10
2018-06-21T09:23:31.056Z,80.20
2018-06-21T09:25:59.516Z,78.10
2018-06-21T09:28:27.984Z,79.80
2018-06-21T09:30:56.468Z,79.10
2018-06-21T09:33:24.948Z,74.40
2018-06-21T09:35:53.620Z,75.20
2018-06-21T09:38:27.440Z,74.90
2018-06-21T09:41:01.308Z,65.40
2018-06-21T09:46:08.459Z,70.00
2018-06-21T09:48:37.212Z,69.00
2018-06-21T09:53:33.857Z,61.50
2018-06-21T09:58:30.452Z,57.60
2018-06-21T10:01:02.567Z,57.90
2018-06-21T10:03:31.592Z,58.10
2018-06-21T10:06:00.038Z,58.50
2018-06-21T10:08:28.729Z,57.80
2018-06-21T10:10:57.232Z,56.70
2018-06-21T10:13:25.785Z,55.60
2018-06-21T10:15:54.835Z,56.30
2018-06-21T10:18:23.371Z,58.40
2018-06-21T10:20:52.085Z,55.90
2018-06-21T10:23:20.544Z,55.10
2018-06-21T10:25:49.023Z,54.20
2018-06-21T10:28:17.484Z,53.70
2018-06-21T10:30:45.964Z,54.60
2018-06-21T10:33:14.408Z,53.40
2018-06-21T10:35:42.887Z,54.20
2018-06-21T10:38:11.333Z,54.50
2018-06-21T10:43:08.216Z,55.30
2018-06-21T10:45:36.692Z,55.40
2018-06-21T10:48:05.171Z,56.20
2018-06-21T10:50:33.654Z,56.80
2018-06-21T10:53:02.124Z,56.60
2018-06-21T10:55:30.583Z,56.50
2018-06-21T10:57:59.051Z,56.80
2018-06-21T11:00:27.511Z,56.60
2018-06-21T11:02:55.972Z,55.70
2018-06-21T11:05:24.495Z,56.80
2018-06-21T11:07:52.948Z,57.70
2018-06-21T11:10:21.432Z,58.30
2018-06-21T11:12:49.879Z,58.70
2018-06-21T11:15:18.369Z,58.70
2018-06-21T11:17:46.827Z,58.60
2018-06-21T11:22:43.455Z,59.40
2018-06-21T11:25:11.912Z,60.60
2018-06-21T11:27:40.427Z,61.10
2018-06-21T11:30:08.873Z,62.10
2018-06-21T11:32:37.343Z,62.30
2018-06-21T11:35:05.807Z,62.90
2018-06-21T11:37:34.487Z,62.90
2018-06-21T11:42:31.102Z,60.50
2018-06-21T11:44:59.580Z,60.70
2018-06-21T11:47:28.048Z,56.90
2018-06-21T11:49:56.499Z,56.70
2018-06-21T11:52:25.876Z,57.00
2018-06-21T11:57:22.548Z,58.20
2018-06-21T11:59:51.124Z,58.50
2018-06-21T12:02:19.649Z,58.90
2018-06-21T12:04:48.176Z,62.40
2018-06-21T12:09:44.957Z,66.40
2018-06-21T12:12:13.902Z,67.20
2018-06-21T12:14:42.401Z,67.60
2018-06-21T12:17:10.934Z,67.40
2018-06-21T12:19:39.442Z,67.30
2018-06-21T12:22:07.957Z,67.80
2018-06-21T12:24:36.598Z,67.40
2018-06-21T12:27:05.294Z,68.40
2018-06-21T12:29:33.822Z,67.30
2018-06-21T12:34:30.549Z,65.10
2018-06-21T12:36:59.061Z,63.00
2018-06-21T12:41:55.789Z,62.20
2018-06-21T12:44:24.356Z,60.90
2018-06-21T12:46:52.933Z,60.80
2018-06-21T12:49:21.480Z,59.80
2018-06-21T12:51:50.006Z,60.30
2018-06-21T12:54:18.533Z,59.90
2018-06-21T12:56:47.049Z,59.90
2018-06-21T12:59:15.559Z,61.20
2018-06-21T13:01:44.105Z,62.40
2018-06-21T13:04:12.617Z,63.50
2018-06-21T13:06:41.174Z,63.90
2018-06-21T13:09:20.869Z,64.60
2018-06-21T13:12:42.193Z,65.70
2018-06-21T13:15:10.692Z,67.30
2018-06-21T13:20:07.612Z,68.60
2018-06-21T13:22:36.185Z,69.10
2018-06-21T13:25:05.065Z,72.30
2018-06-21T13:27:33.613Z,73.40
2018-06-21T13:32:30.389Z,70.20
2018-06-21T13:34:58.920Z,69.50
2018-06-21T13:37:27.612Z,71.20
2018-06-21T13:39:56.141Z,72.00
2018-06-21T13:42:24.672Z,73.20
2018-06-21T13:44:53.204Z,73.70
2018-06-21T13:47:21.737Z,74.30
2018-06-21T13:49:50.297Z,74.80
2018-06-21T13:52:18.802Z,74.80
2018-06-21T13:54:47.318Z,73.80
2018-06-21T13:57:15.852Z,73.00
2018-06-21T13:59:44.386Z,71.70
2018-06-21T14:02:12.881Z,68.10
2018-06-21T14:04:41.420Z,66.50
2018-06-21T14:07:09.969Z,63.50
2018-06-21T14:09:38.489Z,63.70
2018-06-21T14:12:07.070Z,61.70
2018-06-21T14:14:35.663Z,62.50
2018-06-21T14:17:04.328Z,63.10
2018-06-21T14:19:32.862Z,63.20
2018-06-21T14:22:01.489Z,62.40
2018-06-21T14:24:30.073Z,61.40
2018-06-21T14:26:58.602Z,61.70
2018-06-21T14:29:27.183Z,59.30
2018-06-21T14:34:24.010Z,59.00
2018-06-21T14:36:52.561Z,57.30
2018-06-21T14:39:21.219Z,55.80
2018-06-21T14:41:49.769Z,55.00
2018-06-21T14:44:18.305Z,54.90
2018-06-21T14:46:46.838Z,54.20
2018-06-21T14:49:15.394Z,54.30
2018-06-21T14:51:43.920Z,54.00
2018-06-21T14:54:12.506Z,53.30
2018-06-21T14:59:09.360Z,53.10
2018-06-21T15:04:06.386Z,51.40
2018-06-21T15:06:34.931Z,50.10
2018-06-21T15:09:04.197Z,51.10
2018-06-21T15:11:33.005Z,49.40
2018-06-21T15:16:29.730Z,48.30
2018-06-21T15:18:58.278Z,48.20
2018-06-21T15:21:26.839Z,47.60
2018-06-21T15:23:55.446Z,47.00
2018-06-21T15:26:23.992Z,46.00
2018-06-21T15:31:20.747Z,45.20
2018-06-21T15:33:49.329Z,45.20
2018-06-21T15:38:46.047Z,44.70
2018-06-21T15:41:14.704Z,44.60
2018-06-21T15:43:43.333Z,44.60
2018-06-21T15:46:11.846Z,43.70
2018-06-21T15:48:40.386Z,43.00
2018-06-21T15:51:08.887Z,42.60
2018-06-21T15:53:37.416Z,43.10
2018-06-21T15:56:06.021Z,39.90
2018-06-21T15:58:34.550Z,39.40
2018-06-21T16:03:31.295Z,39.50
2018-06-21T16:05:59.813Z,38.80
2018-06-21T16:08:28.433Z,39.20
2018-06-21T16:10:57.037Z,38.90
2018-06-21T16:13:25.571Z,39.00
2018-06-21T16:15:54.125Z,38.50
2018-06-21T16:18:22.665Z,37.90
2018-06-21T16:20:51.220Z,39.10
2018-06-21T16:23:19.750Z,37.60
2018-06-21T16:25:48.290Z,38.40
2018-06-21T16:28:16.796Z,39.30
2018-06-21T16:30:45.383Z,40.20
2018-06-21T16:33:13.897Z,40.40
2018-06-21T16:35:42.428Z,40.50
2018-06-21T16:38:12.416Z,40.80
2018-06-21T16:40:41.424Z,41.10
2018-06-21T16:43:09.956Z,40.20
2018-06-21T16:45:38.568Z,40.00
2018-06-21T16:48:07.139Z,40.60
2018-06-21T16:53:03.852Z,41.40
2018-06-21T16:55:32.359Z,40.60
2018-06-21T16:58:00.894Z,40.30
2018-06-21T17:00:29.408Z,39.70
2018-06-21T17:02:57.982Z,40.00
2018-06-21T17:05:26.522Z,39.20
2018-06-21T17:07:55.126Z,38.30
2018-06-21T17:10:23.701Z,38.40
2018-06-21T17:12:52.205Z,38.70
2018-06-21T17:15:20.721Z,38.20
2018-06-21T17:17:49.277Z,38.50
2018-06-21T17:20:17.810Z,38.00
2018-06-21T17:25:14.564Z,38.50
2018-06-21T17:27:43.085Z,38.70
2018-06-21T17:30:11.621Z,38.90
2018-06-21T17:32:40.171Z,38.90
2018-06-21T17:35:08.757Z,39.10
2018-06-21T17:37:37.284Z,39.10
2018-06-21T17:40:05.959Z,38.70
2018-06-21T17:42:34.449Z,39.30
2018-06-21T17:47:31.166Z,39.30
2018-06-21T17:49:59.708Z,39.50
2018-06-21T17:52:28.225Z,39.20
2018-06-21T17:54:56.724Z,40.40
2018-06-21T17:57:25.277Z,39.80
2018-06-21T17:59:53.862Z,39.10
2018-06-21T18:02:22.405Z,39.60
2018-06-21T18:04:50.982Z,40.00
2018-06-21T18:07:19.562Z,39.30
2018-06-21T18:09:48.070Z,39.80
2018-06-21T18:17:12.996Z,39.60
2018-06-21T18:19:41.500Z,39.90
2018-06-21T18:22:10.190Z,40.00
2018-06-21T18:24:38.795Z,39.80
2018-06-21T18:27:07.353Z,39.70
2018-06-21T18:29:36.045Z,40.20
2018-06-21T18:32:04.579Z,40.30
2018-06-21T18:34:33.055Z,40.50
2018-06-21T18:37:01.517Z,40.60
2018-06-21T18:39:30.088Z,40.90
2018-06-21T18:41:58.540Z,41.30
2018-06-21T18:46:55.168Z,41.00
2018-06-21T18:49:23.687Z,41.10
2018-06-21T18:51:52.172Z,41.20
2018-06-21T18:54:21.492Z,41.60
2018-06-21T18:56:49.975Z,41.50
2018-06-21T18:59:18.431Z,41.90
2018-06-21T19:01:46.908Z,42.00
2018-06-21T19:06:50.398Z,42.20
2018-06-21T19:09:24.360Z,42.10
2018-06-21T19:11:59.118Z,42.30
2018-06-21T19:14:27.958Z,42.40
2018-06-21T19:19:24.599Z,43.00
2018-06-21T19:21:53.076Z,42.80
2018-06-21T19:24:21.564Z,43.00
2018-06-21T19:26:50.017Z,43.50
2018-06-21T19:29:18.491Z,43.50
2018-06-21T19:36:43.720Z,44.80
2018-06-21T19:39:12.300Z,44.50
2018-06-21T19:41:40.791Z,45.40
2018-06-21T19:44:10.572Z,44.50
2018-06-21T19:46:39.079Z,44.50
2018-06-21T19:49:07.628Z,45.40
2018-06-21T19:51:36.107Z,45.30
2018-06-21T19:54:04.782Z,45.20
2018-06-21T19:59:01.730Z,45.30
2018-06-21T20:01:30.282Z,45.30
2018-06-21T20:03:58.749Z,45.30
2018-06-21T20:06:27.232Z,45.40
2018-06-21T20:08:55.692Z,45.70
2018-06-21T20:11:29.607Z,45.70
2018-06-21T20:13:58.069Z,45.80
2018-06-21T20:18:54.692Z,45.90
2018-06-21T20:21:23.160Z,46.90
2018-06-21T20:23:52.297Z,47.40
2018-06-21T20:26:21.415Z,46.80
2018-06-21T20:28:49.871Z,46.30
2018-06-21T20:31:18.536Z,46.50
2018-06-21T20:33:47.859Z,46.30
2018-06-21T20:36:16.665Z,46.80
2018-06-21T20:38:45.123Z,47.40
2018-06-21T20:41:13.604Z,47.10
2018-06-21T20:43:42.103Z,46.90
2018-06-21T20:48:38.878Z,47.10
2018-06-21T20:51:07.332Z,47.60
2018-06-21T20:53:35.812Z,47.60
2018-06-21T20:56:04.336Z,47.80
2018-06-21T20:58:32.821Z,47.90
2018-06-21T21:01:01.275Z,48.00
2018-06-21T21:05:57.872Z,48.00
2018-06-21T21:08:26.600Z,48.20
2018-06-21T21:13:23.180Z,48.30
2018-06-21T21:15:51.647Z,48.60
2018-06-21T21:20:48.348Z,48.80
2018-06-21T21:23:16.825Z,48.90
2018-06-21T21:25:45.275Z,48.80
2018-06-21T21:28:13.703Z,49.00
2018-06-21T21:30:42.148Z,48.90
2018-06-21T21:33:10.612Z,49.30
2018-06-21T21:35:39.048Z,49.60
2018-06-21T21:38:07.509Z,49.80
2018-06-21T21:40:35.959Z,49.70
2018-06-21T21:43:04.420Z,49.50
2018-06-21T21:48:01.000Z,49.80
2018-06-21T21:50:29.448Z,49.30
2018-06-21T21:55:26.017Z,50.80
2018-06-21T21:57:54.449Z,49.80
2018-06-21T22:00:57.516Z,49.90
2018-06-21T22:03:25.960Z,50.30
2018-06-21T22:05:54.504Z,50.40
2018-06-21T22:08:23.006Z,50.40
2018-06-21T22:10:51.464Z,50.60
2018-06-21T22:13:19.907Z,50.40
2018-06-21T22:15:48.606Z,51.00
2018-06-21T22:18:17.123Z,51.10
2018-06-21T22:20:45.564Z,51.60
2018-06-21T22:23:14.017Z,51.90
2018-06-21T22:25:42.459Z,52.00
2018-06-21T22:28:10.912Z,52.10
2018-06-21T22:30:39.340Z,52.10
2018-06-21T22:33:07.799Z,52.30
2018-06-21T22:35:36.240Z,52.40
2018-06-21T22:40:32.830Z,52.60
2018-06-21T22:43:01.260Z,52.50
2018-06-21T22:45:29.707Z,52.40
2018-06-21T22:47:58.123Z,52.80
2018-06-21T22:52:54.701Z,52.90
2018-06-21T22:55:23.128Z,53.10
2018-06-21T22:57:51.603Z,53.30
2018-06-21T23:00:20.032Z,53.30
2018-06-21T23:02:48.488Z,53.10
2018-06-21T23:05:16.915Z,53.30
2018-06-21T23:07:45.384Z,53.40
2018-06-21T23:10:13.803Z,53.60
2018-06-21T23:12:42.256Z,53.80
2018-06-21T23:15:10.715Z,54.10
2018-06-21T23:17:39.227Z,54.40
2018-06-21T23:20:07.680Z,54.80
2018-06-21T23:22:36.130Z,54.60
2018-06-21T23:25:04.580Z,54.40
2018-06-21T23:27:33.003Z,55.10
2018-06-21T23:32:29.568Z,55.00
2018-06-21T23:37:26.128Z,55.80
2018-06-21T23:39:54.585Z,55.60
2018-06-21T23:42:23.020Z,55.70
2018-06-21T23:44:51.448Z,56.00
2018-06-21T23:49:48.024Z,56.10
2018-06-21T23:52:16.476Z,56.30
2018-06-21T23:54:44.900Z,56.40
2018-06-21T23:57:13.359Z,56.70
2018-06-21T23:59:41.792Z,56.40
